sensor_id;sensor_type;location;lat;lon;timestamp;P1;durP1;ratioP1;P2;durP2;ratioP2
9459;SDS011;4768;42.664;23.240;2023-06-04T00:00:18;1.50;;;0.30;;
9459;SDS011;4768;42.664;23.240;2023-06-04T00:02:45;0.30;;;0.30;;
9459;SDS011;4768;42.664;23.240;2023-06-04T00:05:12;0.30;;;0.27;;
9459;SDS011;4768;42.664;23.240;2023-06-04T00:07:38;0.10;;;0.10;;
9459;SDS011;4768;42.664;23.240;2023-06-04T00:10:06;0.10;;;0.10;;
9459;SDS011;4768;42.664;23.240;2023-06-04T00:12:33;0.00;;;0.00;;
9459;SDS011;4768;42.664;23.240;2023-06-04T00:15:00;0.00;;;0.00;;
9459;SDS011;4768;42.664;23.240;2023-06-04T00:17:28;0.37;;;0.20;;
9459;SDS011;4768;42.664;23.240;2023-06-04T00:19:54;0.00;;;0.00;;
9459;SDS011;4768;42.664;23.240;2023-06-04T00:22:21;0.00;;;0.00;;
9459;SDS011;4768;42.664;23.240;2023-06-04T00:24:48;0.00;;;0.00;;
9459;SDS011;4768;42.664;23.240;2023-06-04T00:27:15;0.10;;;0.10;;
9459;SDS011;4768;42.664;23.240;2023-06-04T00:29:42;0.37;;;0.30;;
9459;SDS011;4768;42.664;23.240;2023-06-04T00:32:09;0.27;;;0.23;;
9459;SDS011;4768;42.664;23.240;2023-06-04T00:34:37;0.17;;;0.17;;
9459;SDS011;4768;42.664;23.240;2023-06-04T00:37:04;0.30;;;0.20;;
9459;SDS011;4768;42.664;23.240;2023-06-04T00:39:31;0.40;;;0.07;;
9459;SDS011;4768;42.664;23.240;2023-06-04T00:41:59;0.00;;;0.00;;
9459;SDS011;4768;42.664;23.240;2023-06-04T00:44:26;0.10;;;0.10;;
9459;SDS011;4768;42.664;23.240;2023-06-04T00:46:53;0.00;;;0.00;;
9459;SDS011;4768;42.664;23.240;2023-06-04T00:49:20;0.10;;;0.10;;
9459;SDS011;4768;42.664;23.240;2023-06-04T00:51:49;0.77;;;0.27;;
9459;SDS011;4768;42.664;23.240;2023-06-04T00:54:17;0.00;;;0.00;;
9459;SDS011;4768;42.664;23.240;2023-06-04T00:56:47;0.17;;;0.17;;
9459;SDS011;4768;42.664;23.240;2023-06-04T00:59:14;0.37;;;0.13;;
9459;SDS011;4768;42.664;23.240;2023-06-04T01:01:42;2.20;;;0.30;;
9459;SDS011;4768;42.664;23.240;2023-06-04T01:04:16;0.10;;;0.10;;
9459;SDS011;4768;42.664;23.240;2023-06-04T01:06:52;0.23;;;0.17;;
9459;SDS011;4768;42.664;23.240;2023-06-04T01:09:22;0.10;;;0.10;;
9459;SDS011;4768;42.664;23.240;2023-06-04T01:11:52;0.30;;;0.30;;
9459;SDS011;4768;42.664;23.240;2023-06-04T01:14:19;0.43;;;0.30;;
9459;SDS011;4768;42.664;23.240;2023-06-04T01:16:47;0.47;;;0.47;;
9459;SDS011;4768;42.664;23.240;2023-06-04T01:19:37;0.40;;;0.07;;
9459;SDS011;4768;42.664;23.240;2023-06-04T01:22:23;0.17;;;0.17;;
9459;SDS011;4768;42.664;23.240;2023-06-04T01:24:59;0.87;;;0.70;;
9459;SDS011;4768;42.664;23.240;2023-06-04T01:27:29;0.57;;;0.43;;
9459;SDS011;4768;42.664;23.240;2023-06-04T01:29:57;0.17;;;0.17;;
9459;SDS011;4768;42.664;23.240;2023-06-04T01:32:25;0.67;;;0.57;;
9459;SDS011;4768;42.664;23.240;2023-06-04T01:34:53;1.13;;;0.47;;
9459;SDS011;4768;42.664;23.240;2023-06-04T01:37:22;0.30;;;0.23;;
9459;SDS011;4768;42.664;23.240;2023-06-04T01:39:48;0.83;;;0.83;;
9459;SDS011;4768;42.664;23.240;2023-06-04T01:42:16;0.53;;;0.53;;
9459;SDS011;4768;42.664;23.240;2023-06-04T01:44:45;0.13;;;0.13;;
9459;SDS011;4768;42.664;23.240;2023-06-04T01:47:12;0.40;;;0.40;;
9459;SDS011;4768;42.664;23.240;2023-06-04T01:49:39;0.50;;;0.30;;
9459;SDS011;4768;42.664;23.240;2023-06-04T01:52:06;0.43;;;0.10;;
9459;SDS011;4768;42.664;23.240;2023-06-04T01:54:35;0.30;;;0.30;;
9459;SDS011;4768;42.664;23.240;2023-06-04T01:57:03;0.30;;;0.20;;
9459;SDS011;4768;42.664;23.240;2023-06-04T01:59:30;0.10;;;0.10;;
9459;SDS011;4768;42.664;23.240;2023-06-04T02:01:58;0.20;;;0.20;;
9459;SDS011;4768;42.664;23.240;2023-06-04T02:04:26;0.10;;;0.10;;
9459;SDS011;4768;42.664;23.240;2023-06-04T02:06:53;0.00;;;0.00;;
9459;SDS011;4768;42.664;23.240;2023-06-04T02:09:20;0.87;;;0.33;;
9459;SDS011;4768;42.664;23.240;2023-06-04T02:11:49;0.23;;;0.20;;
9459;SDS011;4768;42.664;23.240;2023-06-04T02:14:15;0.00;;;0.00;;
9459;SDS011;4768;42.664;23.240;2023-06-04T02:16:42;0.13;;;0.13;;
9459;SDS011;4768;42.664;23.240;2023-06-04T02:19:09;0.40;;;0.40;;
9459;SDS011;4768;42.664;23.240;2023-06-04T02:21:37;0.00;;;0.00;;
9459;SDS011;4768;42.664;23.240;2023-06-04T02:24:04;1.57;;;0.70;;
9459;SDS011;4768;42.664;23.240;2023-06-04T02:26:31;0.00;;;0.00;;
9459;SDS011;4768;42.664;23.240;2023-06-04T02:28:59;0.27;;;0.27;;
9459;SDS011;4768;42.664;23.240;2023-06-04T02:31:26;0.00;;;0.00;;
9459;SDS011;4768;42.664;23.240;2023-06-04T02:33:53;0.27;;;0.20;;
9459;SDS011;4768;42.664;23.240;2023-06-04T02:36:20;0.20;;;0.20;;
9459;SDS011;4768;42.664;23.240;2023-06-04T02:38:46;2.10;;;0.20;;
9459;SDS011;4768;42.664;23.240;2023-06-04T02:41:13;0.50;;;0.20;;
9459;SDS011;4768;42.664;23.240;2023-06-04T02:43:40;0.20;;;0.10;;
9459;SDS011;4768;42.664;23.240;2023-06-04T02:46:08;0.20;;;0.20;;
9459;SDS011;4768;42.664;23.240;2023-06-04T02:48:35;0.27;;;0.27;;
9459;SDS011;4768;42.664;23.240;2023-06-04T02:51:01;0.30;;;0.30;;
9459;SDS011;4768;42.664;23.240;2023-06-04T02:53:30;0.10;;;0.10;;
9459;SDS011;4768;42.664;23.240;2023-06-04T02:55:56;0.00;;;0.00;;
9459;SDS011;4768;42.664;23.240;2023-06-04T02:58:24;0.00;;;0.00;;
9459;SDS011;4768;42.664;23.240;2023-06-04T03:00:51;0.10;;;0.10;;
9459;SDS011;4768;42.664;23.240;2023-06-04T03:03:20;0.30;;;0.30;;
9459;SDS011;4768;42.664;23.240;2023-06-04T03:05:47;0.30;;;0.30;;
9459;SDS011;4768;42.664;23.240;2023-06-04T03:08:14;0.00;;;0.00;;
9459;SDS011;4768;42.664;23.240;2023-06-04T03:10:42;0.17;;;0.17;;
9459;SDS011;4768;42.664;23.240;2023-06-04T03:13:09;0.37;;;0.37;;
9459;SDS011;4768;42.664;23.240;2023-06-04T03:15:36;0.57;;;0.20;;
9459;SDS011;4768;42.664;23.240;2023-06-04T03:18:04;0.10;;;0.10;;
9459;SDS011;4768;42.664;23.240;2023-06-04T03:20:34;0.00;;;0.00;;
9459;SDS011;4768;42.664;23.240;2023-06-04T03:23:03;0.00;;;0.00;;
9459;SDS011;4768;42.664;23.240;2023-06-04T03:25:30;0.17;;;0.17;;
9459;SDS011;4768;42.664;23.240;2023-06-04T03:27:56;0.10;;;0.10;;
9459;SDS011;4768;42.664;23.240;2023-06-04T03:30:23;0.33;;;0.10;;
9459;SDS011;4768;42.664;23.240;2023-06-04T03:32:50;0.10;;;0.10;;
9459;SDS011;4768;42.664;23.240;2023-06-04T03:35:16;0.40;;;0.27;;
9459;SDS011;4768;42.664;23.240;2023-06-04T03:37:44;0.20;;;0.20;;
9459;SDS011;4768;42.664;23.240;2023-06-04T03:40:12;0.17;;;0.17;;
9459;SDS011;4768;42.664;23.240;2023-06-04T03:42:40;0.10;;;0.10;;
9459;SDS011;4768;42.664;23.240;2023-06-04T03:45:07;0.00;;;0.00;;
9459;SDS011;4768;42.664;23.240;2023-06-04T03:47:34;0.10;;;0.10;;
9459;SDS011;4768;42.664;23.240;2023-06-04T03:50:01;0.10;;;0.10;;
9459;SDS011;4768;42.664;23.240;2023-06-04T03:52:28;0.00;;;0.00;;
9459;SDS011;4768;42.664;23.240;2023-06-04T03:54:56;0.00;;;0.00;;
9459;SDS011;4768;42.664;23.240;2023-06-04T03:57:23;0.40;;;0.20;;
9459;SDS011;4768;42.664;23.240;2023-06-04T03:59:50;0.07;;;0.07;;
9459;SDS011;4768;42.664;23.240;2023-06-04T04:02:16;0.07;;;0.07;;
9459;SDS011;4768;42.664;23.240;2023-06-04T04:04:43;0.07;;;0.07;;
9459;SDS011;4768;42.664;23.240;2023-06-04T04:07:11;0.30;;;0.30;;
9459;SDS011;4768;42.664;23.240;2023-06-04T04:09:38;0.00;;;0.00;;
9459;SDS011;4768;42.664;23.240;2023-06-04T04:12:07;0.00;;;0.00;;
9459;SDS011;4768;42.664;23.240;2023-06-04T04:14:33;0.10;;;0.10;;
9459;SDS011;4768;42.664;23.240;2023-06-04T04:17:00;0.10;;;0.10;;
9459;SDS011;4768;42.664;23.240;2023-06-04T04:19:27;0.93;;;0.20;;
9459;SDS011;4768;42.664;23.240;2023-06-04T04:21:54;0.20;;;0.20;;
9459;SDS011;4768;42.664;23.240;2023-06-04T04:24:22;0.00;;;0.00;;
9459;SDS011;4768;42.664;23.240;2023-06-04T04:26:48;0.10;;;0.10;;
9459;SDS011;4768;42.664;23.240;2023-06-04T04:29:20;0.10;;;0.10;;
9459;SDS011;4768;42.664;23.240;2023-06-04T04:31:47;2.10;;;0.30;;
9459;SDS011;4768;42.664;23.240;2023-06-04T04:34:14;0.00;;;0.00;;
9459;SDS011;4768;42.664;23.240;2023-06-04T04:36:42;0.40;;;0.40;;
9459;SDS011;4768;42.664;23.240;2023-06-04T04:39:09;0.00;;;0.00;;
9459;SDS011;4768;42.664;23.240;2023-06-04T04:41:36;0.00;;;0.00;;
9459;SDS011;4768;42.664;23.240;2023-06-04T04:44:03;0.00;;;0.00;;
9459;SDS011;4768;42.664;23.240;2023-06-04T04:46:32;0.20;;;0.20;;
9459;SDS011;4768;42.664;23.240;2023-06-04T04:48:59;0.10;;;0.10;;
9459;SDS011;4768;42.664;23.240;2023-06-04T04:51:26;0.00;;;0.00;;
9459;SDS011;4768;42.664;23.240;2023-06-04T04:53:52;0.20;;;0.20;;
9459;SDS011;4768;42.664;23.240;2023-06-04T04:56:20;0.00;;;0.00;;
9459;SDS011;4768;42.664;23.240;2023-06-04T04:58:47;0.27;;;0.27;;
9459;SDS011;4768;42.664;23.240;2023-06-04T05:01:14;0.20;;;0.20;;
9459;SDS011;4768;42.664;23.240;2023-06-04T05:03:43;0.10;;;0.10;;
9459;SDS011;4768;42.664;23.240;2023-06-04T05:06:10;0.10;;;0.10;;
9459;SDS011;4768;42.664;23.240;2023-06-04T05:08:37;0.03;;;0.03;;
9459;SDS011;4768;42.664;23.240;2023-06-04T05:11:04;0.00;;;0.00;;
9459;SDS011;4768;42.664;23.240;2023-06-04T05:13:31;0.20;;;0.20;;
9459;SDS011;4768;42.664;23.240;2023-06-04T05:15:58;0.30;;;0.23;;
9459;SDS011;4768;42.664;23.240;2023-06-04T05:18:25;0.00;;;0.00;;
9459;SDS011;4768;42.664;23.240;2023-06-04T05:20:55;0.17;;;0.17;;
9459;SDS011;4768;42.664;23.240;2023-06-04T05:23:22;0.17;;;0.17;;
9459;SDS011;4768;42.664;23.240;2023-06-04T05:25:50;0.00;;;0.00;;
9459;SDS011;4768;42.664;23.240;2023-06-04T05:28:17;0.47;;;0.30;;
9459;SDS011;4768;42.664;23.240;2023-06-04T05:30:44;0.07;;;0.07;;
9459;SDS011;4768;42.664;23.240;2023-06-04T05:33:13;0.13;;;0.13;;
9459;SDS011;4768;42.664;23.240;2023-06-04T05:35:43;0.00;;;0.00;;
9459;SDS011;4768;42.664;23.240;2023-06-04T05:38:12;0.20;;;0.20;;
9459;SDS011;4768;42.664;23.240;2023-06-04T05:40:42;0.00;;;0.00;;
9459;SDS011;4768;42.664;23.240;2023-06-04T05:43:09;0.00;;;0.00;;
9459;SDS011;4768;42.664;23.240;2023-06-04T05:45:35;0.03;;;0.03;;
9459;SDS011;4768;42.664;23.240;2023-06-04T05:48:02;0.10;;;0.10;;
9459;SDS011;4768;42.664;23.240;2023-06-04T05:50:29;0.83;;;0.17;;
9459;SDS011;4768;42.664;23.240;2023-06-04T05:52:56;0.00;;;0.00;;
9459;SDS011;4768;42.664;23.240;2023-06-04T05:55:25;0.27;;;0.27;;
9459;SDS011;4768;42.664;23.240;2023-06-04T05:57:53;0.10;;;0.00;;
9459;SDS011;4768;42.664;23.240;2023-06-04T06:00:20;0.03;;;0.03;;
9459;SDS011;4768;42.664;23.240;2023-06-04T06:02:49;0.27;;;0.27;;
9459;SDS011;4768;42.664;23.240;2023-06-04T06:05:17;0.30;;;0.30;;
9459;SDS011;4768;42.664;23.240;2023-06-04T06:07:47;0.20;;;0.20;;
9459;SDS011;4768;42.664;23.240;2023-06-04T06:10:14;0.97;;;0.87;;
9459;SDS011;4768;42.664;23.240;2023-06-04T06:12:42;0.20;;;0.20;;
9459;SDS011;4768;42.664;23.240;2023-06-04T06:15:10;0.20;;;0.20;;
9459;SDS011;4768;42.664;23.240;2023-06-04T06:17:37;0.07;;;0.07;;
9459;SDS011;4768;42.664;23.240;2023-06-04T06:20:05;0.07;;;0.07;;
9459;SDS011;4768;42.664;23.240;2023-06-04T06:22:33;0.57;;;0.10;;
9459;SDS011;4768;42.664;23.240;2023-06-04T06:25:00;0.57;;;0.40;;
9459;SDS011;4768;42.664;23.240;2023-06-04T06:27:28;0.10;;;0.10;;
9459;SDS011;4768;42.664;23.240;2023-06-04T06:29:56;0.10;;;0.10;;
9459;SDS011;4768;42.664;23.240;2023-06-04T06:32:23;0.13;;;0.03;;
9459;SDS011;4768;42.664;23.240;2023-06-04T06:34:50;0.30;;;0.23;;
9459;SDS011;4768;42.664;23.240;2023-06-04T06:37:16;0.30;;;0.30;;
9459;SDS011;4768;42.664;23.240;2023-06-04T06:39:43;0.13;;;0.10;;
9459;SDS011;4768;42.664;23.240;2023-06-04T06:42:10;0.67;;;0.53;;
9459;SDS011;4768;42.664;23.240;2023-06-04T06:44:37;0.13;;;0.13;;
9459;SDS011;4768;42.664;23.240;2023-06-04T06:47:06;0.37;;;0.37;;
9459;SDS011;4768;42.664;23.240;2023-06-04T06:49:33;2.30;;;0.77;;
9459;SDS011;4768;42.664;23.240;2023-06-04T06:51:59;1.47;;;1.37;;
9459;SDS011;4768;42.664;23.240;2023-06-04T06:54:26;0.07;;;0.07;;
9459;SDS011;4768;42.664;23.240;2023-06-04T06:56:53;0.30;;;0.30;;
9459;SDS011;4768;42.664;23.240;2023-06-04T06:59:20;0.23;;;0.23;;
9459;SDS011;4768;42.664;23.240;2023-06-04T07:01:46;0.20;;;0.13;;
9459;SDS011;4768;42.664;23.240;2023-06-04T07:04:15;1.60;;;0.40;;
9459;SDS011;4768;42.664;23.240;2023-06-04T07:06:42;0.03;;;0.03;;
9459;SDS011;4768;42.664;23.240;2023-06-04T07:09:09;0.53;;;0.53;;
9459;SDS011;4768;42.664;23.240;2023-06-04T07:11:36;0.40;;;0.30;;
9459;SDS011;4768;42.664;23.240;2023-06-04T07:14:03;0.57;;;0.47;;
9459;SDS011;4768;42.664;23.240;2023-06-04T07:16:30;0.13;;;0.07;;
9459;SDS011;4768;42.664;23.240;2023-06-04T07:18:57;0.10;;;0.10;;
9459;SDS011;4768;42.664;23.240;2023-06-04T07:21:25;0.30;;;0.30;;
9459;SDS011;4768;42.664;23.240;2023-06-04T07:23:52;0.30;;;0.20;;
9459;SDS011;4768;42.664;23.240;2023-06-04T07:26:18;0.20;;;0.20;;
9459;SDS011;4768;42.664;23.240;2023-06-04T07:28:45;1.80;;;0.70;;
9459;SDS011;4768;42.664;23.240;2023-06-04T07:31:15;0.00;;;0.00;;
9459;SDS011;4768;42.664;23.240;2023-06-04T07:33:41;0.57;;;0.57;;
9459;SDS011;4768;42.664;23.240;2023-06-04T07:36:09;0.77;;;0.50;;
9459;SDS011;4768;42.664;23.240;2023-06-04T07:38:40;0.30;;;0.30;;
9459;SDS011;4768;42.664;23.240;2023-06-04T07:41:07;0.27;;;0.17;;
9459;SDS011;4768;42.664;23.240;2023-06-04T07:43:34;0.70;;;0.30;;
9459;SDS011;4768;42.664;23.240;2023-06-04T07:46:01;0.30;;;0.10;;
9459;SDS011;4768;42.664;23.240;2023-06-04T07:48:28;0.87;;;0.50;;
9459;SDS011;4768;42.664;23.240;2023-06-04T07:50:56;0.47;;;0.40;;
9459;SDS011;4768;42.664;23.240;2023-06-04T07:53:23;0.20;;;0.20;;
9459;SDS011;4768;42.664;23.240;2023-06-04T07:55:51;0.30;;;0.30;;
9459;SDS011;4768;42.664;23.240;2023-06-04T07:58:18;0.20;;;0.20;;
9459;SDS011;4768;42.664;23.240;2023-06-04T08:00:45;1.17;;;0.60;;
9459;SDS011;4768;42.664;23.240;2023-06-04T08:03:13;0.03;;;0.03;;
9459;SDS011;4768;42.664;23.240;2023-06-04T08:05:44;0.40;;;0.40;;
9459;SDS011;4768;42.664;23.240;2023-06-04T08:08:11;0.37;;;0.37;;
9459;SDS011;4768;42.664;23.240;2023-06-04T08:10:38;0.87;;;0.20;;
9459;SDS011;4768;42.664;23.240;2023-06-04T08:13:07;0.10;;;0.10;;
9459;SDS011;4768;42.664;23.240;2023-06-04T08:15:35;0.30;;;0.23;;
9459;SDS011;4768;42.664;23.240;2023-06-04T08:18:02;1.07;;;0.30;;
9459;SDS011;4768;42.664;23.240;2023-06-04T08:20:29;1.87;;;0.40;;
9459;SDS011;4768;42.664;23.240;2023-06-04T08:22:55;0.37;;;0.30;;
9459;SDS011;4768;42.664;23.240;2023-06-04T08:25:22;0.50;;;0.33;;
9459;SDS011;4768;42.664;23.240;2023-06-04T08:27:52;0.43;;;0.20;;
9459;SDS011;4768;42.664;23.240;2023-06-04T08:30:20;0.10;;;0.10;;
9459;SDS011;4768;42.664;23.240;2023-06-04T08:32:47;2.40;;;0.37;;
9459;SDS011;4768;42.664;23.240;2023-06-04T08:35:14;0.20;;;0.20;;
9459;SDS011;4768;42.664;23.240;2023-06-04T08:37:41;0.00;;;0.00;;
9459;SDS011;4768;42.664;23.240;2023-06-04T08:40:08;0.10;;;0.10;;
9459;SDS011;4768;42.664;23.240;2023-06-04T08:42:37;0.87;;;0.60;;
9459;SDS011;4768;42.664;23.240;2023-06-04T08:45:08;0.10;;;0.10;;
9459;SDS011;4768;42.664;23.240;2023-06-04T08:47:37;0.47;;;0.23;;
9459;SDS011;4768;42.664;23.240;2023-06-04T08:50:04;0.40;;;0.40;;
9459;SDS011;4768;42.664;23.240;2023-06-04T08:52:36;0.23;;;0.23;;
9459;SDS011;4768;42.664;23.240;2023-06-04T08:55:04;1.17;;;1.07;;
9459;SDS011;4768;42.664;23.240;2023-06-04T08:57:32;4.87;;;2.47;;
9459;SDS011;4768;42.664;23.240;2023-06-04T09:00:00;2.03;;;1.53;;
9459;SDS011;4768;42.664;23.240;2023-06-04T09:02:28;10.47;;;1.87;;
9459;SDS011;4768;42.664;23.240;2023-06-04T09:04:56;1.80;;;1.20;;
9459;SDS011;4768;42.664;23.240;2023-06-04T09:07:23;1.07;;;0.50;;
9459;SDS011;4768;42.664;23.240;2023-06-04T09:09:51;2.43;;;1.07;;
9459;SDS011;4768;42.664;23.240;2023-06-04T09:12:21;2.87;;;1.50;;
9459;SDS011;4768;42.664;23.240;2023-06-04T09:14:49;1.90;;;1.20;;
9459;SDS011;4768;42.664;23.240;2023-06-04T09:17:20;1.47;;;0.63;;
9459;SDS011;4768;42.664;23.240;2023-06-04T09:19:48;1.03;;;0.70;;
9459;SDS011;4768;42.664;23.240;2023-06-04T09:22:16;0.50;;;0.50;;
9459;SDS011;4768;42.664;23.240;2023-06-04T09:24:44;1.53;;;0.73;;
9459;SDS011;4768;42.664;23.240;2023-06-04T09:27:13;0.37;;;0.37;;
9459;SDS011;4768;42.664;23.240;2023-06-04T09:29:40;0.73;;;0.50;;
9459;SDS011;4768;42.664;23.240;2023-06-04T09:32:20;2.07;;;0.77;;
9459;SDS011;4768;42.664;23.240;2023-06-04T09:34:47;3.57;;;1.13;;
9459;SDS011;4768;42.664;23.240;2023-06-04T09:37:14;0.83;;;0.70;;
9459;SDS011;4768;42.664;23.240;2023-06-04T09:39:43;0.57;;;0.50;;
9459;SDS011;4768;42.664;23.240;2023-06-04T09:42:18;5.27;;;1.10;;
9459;SDS011;4768;42.664;23.240;2023-06-04T09:44:45;0.77;;;0.77;;
9459;SDS011;4768;42.664;23.240;2023-06-04T09:47:12;1.33;;;0.80;;
9459;SDS011;4768;42.664;23.240;2023-06-04T09:49:42;0.63;;;0.20;;
9459;SDS011;4768;42.664;23.240;2023-06-04T09:52:09;0.87;;;0.87;;
9459;SDS011;4768;42.664;23.240;2023-06-04T09:54:36;1.67;;;0.90;;
9459;SDS011;4768;42.664;23.240;2023-06-04T09:57:13;2.50;;;0.37;;
9459;SDS011;4768;42.664;23.240;2023-06-04T09:59:41;0.40;;;0.40;;
9459;SDS011;4768;42.664;23.240;2023-06-04T10:02:11;1.47;;;0.83;;
9459;SDS011;4768;42.664;23.240;2023-06-04T10:04:38;0.63;;;0.63;;
9459;SDS011;4768;42.664;23.240;2023-06-04T10:07:07;1.23;;;0.57;;
9459;SDS011;4768;42.664;23.240;2023-06-04T10:09:38;2.53;;;0.77;;
9459;SDS011;4768;42.664;23.240;2023-06-04T10:12:12;1.63;;;0.70;;
9459;SDS011;4768;42.664;23.240;2023-06-04T10:14:41;0.55;;;0.50;;
9459;SDS011;4768;42.664;23.240;2023-06-04T10:17:14;0.63;;;0.63;;
9459;SDS011;4768;42.664;23.240;2023-06-04T10:19:43;1.17;;;0.50;;
9459;SDS011;4768;42.664;23.240;2023-06-04T10:22:12;0.38;;;0.38;;
9459;SDS011;4768;42.664;23.240;2023-06-04T10:24:39;1.08;;;0.90;;
9459;SDS011;4768;42.664;23.240;2023-06-04T10:27:06;1.35;;;0.57;;
9459;SDS011;4768;42.664;23.240;2023-06-04T10:29:37;0.53;;;0.40;;
9459;SDS011;4768;42.664;23.240;2023-06-04T10:32:04;10.10;;;7.40;;
9459;SDS011;4768;42.664;23.240;2023-06-04T10:34:32;10.27;;;8.75;;
9459;SDS011;4768;42.664;23.240;2023-06-04T10:36:59;10.50;;;8.52;;
9459;SDS011;4768;42.664;23.240;2023-06-04T10:39:25;11.77;;;8.90;;
9459;SDS011;4768;42.664;23.240;2023-06-04T10:41:57;10.07;;;8.30;;
9459;SDS011;4768;42.664;23.240;2023-06-04T10:44:25;10.43;;;8.47;;
9459;SDS011;4768;42.664;23.240;2023-06-04T10:46:53;10.27;;;8.63;;
9459;SDS011;4768;42.664;23.240;2023-06-04T10:49:25;11.35;;;9.02;;
9459;SDS011;4768;42.664;23.240;2023-06-04T10:51:53;9.32;;;8.30;;
9459;SDS011;4768;42.664;23.240;2023-06-04T10:54:22;13.13;;;8.57;;
9459;SDS011;4768;42.664;23.240;2023-06-04T10:56:51;10.48;;;8.25;;
9459;SDS011;4768;42.664;23.240;2023-06-04T10:59:18;10.90;;;7.95;;
9459;SDS011;4768;42.664;23.240;2023-06-04T11:01:45;10.02;;;8.30;;
9459;SDS011;4768;42.664;23.240;2023-06-04T11:04:21;11.52;;;8.32;;
9459;SDS011;4768;42.664;23.240;2023-06-04T11:06:48;11.70;;;8.20;;
9459;SDS011;4768;42.664;23.240;2023-06-04T11:09:28;11.15;;;8.13;;
9459;SDS011;4768;42.664;23.240;2023-06-04T11:11:56;10.45;;;7.97;;
9459;SDS011;4768;42.664;23.240;2023-06-04T11:14:23;11.18;;;7.55;;
9459;SDS011;4768;42.664;23.240;2023-06-04T11:16:50;14.45;;;7.43;;
9459;SDS011;4768;42.664;23.240;2023-06-04T11:19:17;9.60;;;8.02;;
9459;SDS011;4768;42.664;23.240;2023-06-04T11:21:45;11.45;;;8.10;;
9459;SDS011;4768;42.664;23.240;2023-06-04T11:24:12;8.63;;;7.73;;
9459;SDS011;4768;42.664;23.240;2023-06-04T11:26:39;9.10;;;7.33;;
9459;SDS011;4768;42.664;23.240;2023-06-04T11:29:06;10.85;;;8.18;;
9459;SDS011;4768;42.664;23.240;2023-06-04T11:31:40;8.90;;;7.05;;
9459;SDS011;4768;42.664;23.240;2023-06-04T11:34:08;7.43;;;6.70;;
9459;SDS011;4768;42.664;23.240;2023-06-04T11:36:37;9.00;;;7.63;;
9459;SDS011;4768;42.664;23.240;2023-06-04T11:39:05;7.53;;;6.70;;
9459;SDS011;4768;42.664;23.240;2023-06-04T11:41:32;15.38;;;7.45;;
9459;SDS011;4768;42.664;23.240;2023-06-04T11:44:01;7.85;;;7.05;;
9459;SDS011;4768;42.664;23.240;2023-06-04T11:46:30;9.32;;;7.70;;
9459;SDS011;4768;42.664;23.240;2023-06-04T11:48:58;14.00;;;8.13;;
9459;SDS011;4768;42.664;23.240;2023-06-04T11:51:25;9.57;;;8.38;;
9459;SDS011;4768;42.664;23.240;2023-06-04T11:53:52;10.85;;;7.57;;
9459;SDS011;4768;42.664;23.240;2023-06-04T11:56:22;10.73;;;7.40;;
9459;SDS011;4768;42.664;23.240;2023-06-04T11:58:51;7.65;;;6.95;;
9459;SDS011;4768;42.664;23.240;2023-06-04T12:01:20;9.02;;;7.70;;
9459;SDS011;4768;42.664;23.240;2023-06-04T12:03:48;11.05;;;7.13;;
9459;SDS011;4768;42.664;23.240;2023-06-04T12:06:16;8.80;;;6.65;;
9459;SDS011;4768;42.664;23.240;2023-06-04T12:08:46;9.80;;;7.10;;
9459;SDS011;4768;42.664;23.240;2023-06-04T12:11:26;8.15;;;7.32;;
9459;SDS011;4768;42.664;23.240;2023-06-04T12:13:56;8.02;;;7.07;;
9459;SDS011;4768;42.664;23.240;2023-06-04T12:16:24;10.80;;;7.97;;
9459;SDS011;4768;42.664;23.240;2023-06-04T12:18:51;9.23;;;7.90;;
9459;SDS011;4768;42.664;23.240;2023-06-04T12:21:20;11.82;;;7.35;;
9459;SDS011;4768;42.664;23.240;2023-06-04T12:23:52;9.97;;;8.10;;
9459;SDS011;4768;42.664;23.240;2023-06-04T12:26:22;9.73;;;8.07;;
9459;SDS011;4768;42.664;23.240;2023-06-04T12:29:01;9.27;;;7.07;;
9459;SDS011;4768;42.664;23.240;2023-06-04T12:31:29;9.57;;;8.63;;
9459;SDS011;4768;42.664;23.240;2023-06-04T12:33:58;11.43;;;9.03;;
9459;SDS011;4768;42.664;23.240;2023-06-04T12:36:26;11.03;;;9.00;;
9459;SDS011;4768;42.664;23.240;2023-06-04T12:38:57;11.03;;;9.87;;
9459;SDS011;4768;42.664;23.240;2023-06-04T12:41:25;11.87;;;8.80;;
9459;SDS011;4768;42.664;23.240;2023-06-04T12:43:52;10.83;;;9.73;;
9459;SDS011;4768;42.664;23.240;2023-06-04T12:46:20;12.13;;;9.73;;
9459;SDS011;4768;42.664;23.240;2023-06-04T12:48:51;10.97;;;9.03;;
9459;SDS011;4768;42.664;23.240;2023-06-04T12:51:21;13.10;;;9.60;;
9459;SDS011;4768;42.664;23.240;2023-06-04T12:53:49;12.73;;;9.63;;
9459;SDS011;4768;42.664;23.240;2023-06-04T12:56:16;10.17;;;9.07;;
9459;SDS011;4768;42.664;23.240;2023-06-04T12:58:42;10.03;;;8.97;;
9459;SDS011;4768;42.664;23.240;2023-06-04T13:01:09;11.47;;;9.70;;
9459;SDS011;4768;42.664;23.240;2023-06-04T13:03:39;10.37;;;8.90;;
9459;SDS011;4768;42.664;23.240;2023-06-04T13:06:06;9.83;;;8.60;;
9459;SDS011;4768;42.664;23.240;2023-06-04T13:08:34;9.97;;;8.50;;
9459;SDS011;4768;42.664;23.240;2023-06-04T13:11:01;10.33;;;8.20;;
9459;SDS011;4768;42.664;23.240;2023-06-04T13:13:28;12.30;;;8.30;;
9459;SDS011;4768;42.664;23.240;2023-06-04T13:15:55;10.00;;;8.33;;
9459;SDS011;4768;42.664;23.240;2023-06-04T13:18:22;10.63;;;8.87;;
9459;SDS011;4768;42.664;23.240;2023-06-04T13:20:51;11.23;;;9.27;;
9459;SDS011;4768;42.664;23.240;2023-06-04T13:23:18;11.30;;;9.63;;
9459;SDS011;4768;42.664;23.240;2023-06-04T13:25:45;10.77;;;9.67;;
9459;SDS011;4768;42.664;23.240;2023-06-04T13:28:11;14.57;;;9.97;;
9459;SDS011;4768;42.664;23.240;2023-06-04T13:30:38;14.93;;;10.40;;
9459;SDS011;4768;42.664;23.240;2023-06-04T13:33:05;12.97;;;10.10;;
9459;SDS011;4768;42.664;23.240;2023-06-04T13:35:32;11.53;;;10.13;;
9459;SDS011;4768;42.664;23.240;2023-06-04T13:38:01;11.67;;;10.27;;
9459;SDS011;4768;42.664;23.240;2023-06-04T13:40:28;14.93;;;11.23;;
9459;SDS011;4768;42.664;23.240;2023-06-04T13:42:54;11.20;;;9.87;;
9459;SDS011;4768;42.664;23.240;2023-06-04T13:45:21;11.63;;;9.20;;
9459;SDS011;4768;42.664;23.240;2023-06-04T13:47:48;12.20;;;8.43;;
9459;SDS011;4768;42.664;23.240;2023-06-04T13:50:15;9.80;;;8.60;;
9459;SDS011;4768;42.664;23.240;2023-06-04T13:52:42;10.80;;;9.10;;
9459;SDS011;4768;42.664;23.240;2023-06-04T13:55:11;10.17;;;8.33;;
9459;SDS011;4768;42.664;23.240;2023-06-04T13:57:37;8.60;;;7.80;;
9459;SDS011;4768;42.664;23.240;2023-06-04T14:00:05;9.20;;;7.73;;
9459;SDS011;4768;42.664;23.240;2023-06-04T14:02:33;8.27;;;7.40;;
9459;SDS011;4768;42.664;23.240;2023-06-04T14:05:00;9.37;;;7.27;;
9459;SDS011;4768;42.664;23.240;2023-06-04T14:07:26;12.70;;;7.70;;
9459;SDS011;4768;42.664;23.240;2023-06-04T14:09:53;8.17;;;7.37;;
9459;SDS011;4768;42.664;23.240;2023-06-04T14:12:22;10.67;;;7.43;;
9459;SDS011;4768;42.664;23.240;2023-06-04T14:14:49;8.27;;;7.07;;
9459;SDS011;4768;42.664;23.240;2023-06-04T14:17:15;9.73;;;6.97;;
9459;SDS011;4768;42.664;23.240;2023-06-04T14:19:42;8.10;;;6.70;;
9459;SDS011;4768;42.664;23.240;2023-06-04T14:22:09;8.27;;;7.10;;
9459;SDS011;4768;42.664;23.240;2023-06-04T14:24:37;10.70;;;6.33;;
9459;SDS011;4768;42.664;23.240;2023-06-04T14:27:03;9.63;;;6.63;;
9459;SDS011;4768;42.664;23.240;2023-06-04T14:29:33;7.47;;;6.63;;
9459;SDS011;4768;42.664;23.240;2023-06-04T14:32:01;9.83;;;7.17;;
9459;SDS011;4768;42.664;23.240;2023-06-04T14:34:29;8.13;;;7.20;;
9459;SDS011;4768;42.664;23.240;2023-06-04T14:36:57;10.47;;;6.90;;
9459;SDS011;4768;42.664;23.240;2023-06-04T14:39:24;8.13;;;7.13;;
9459;SDS011;4768;42.664;23.240;2023-06-04T14:41:51;8.00;;;6.80;;
9459;SDS011;4768;42.664;23.240;2023-06-04T14:44:18;9.53;;;7.30;;
9459;SDS011;4768;42.664;23.240;2023-06-04T14:46:48;10.27;;;7.67;;
9459;SDS011;4768;42.664;23.240;2023-06-04T14:49:16;10.70;;;8.03;;
9459;SDS011;4768;42.664;23.240;2023-06-04T14:51:43;11.97;;;9.37;;
9459;SDS011;4768;42.664;23.240;2023-06-04T14:54:09;11.93;;;8.13;;
9459;SDS011;4768;42.664;23.240;2023-06-04T14:56:36;17.30;;;12.63;;
9459;SDS011;4768;42.664;23.240;2023-06-04T14:59:03;12.17;;;8.97;;
9459;SDS011;4768;42.664;23.240;2023-06-04T15:01:35;14.67;;;9.03;;